sensor_id;sensor_type;location;lat;lon;timestamp;pressure;altitude;pressure_sealevel;temperature;humidity
33913;BME280;20200;52.084;5.224;2023-02-18T00:01:01;153274.0;;;17.91;54.77
33913;BME280;20200;52.084;5.224;2023-02-18T00:02:38;153119.0;;;17.28;55.79
33913;BME280;20200;52.084;5.224;2023-02-18T00:05:51;153210.0;;;17.66;55.13
33913;BME280;20200;52.084;5.224;2023-02-18T00:07:28;153198.0;;;17.61;55.59
33913;BME280;20200;52.084;5.224;2023-02-18T00:09:09;153004.0;;;16.84;57.42
33913;BME280;20200;52.084;5.224;2023-02-18T00:10:46;153090.0;;;17.18;56.88
33913;BME280;20200;52.084;5.224;2023-02-18T00:14:00;153137.0;;;17.36;56.35
33913;BME280;20200;52.084;5.224;2023-02-18T00:15:39;153084.0;;;17.14;56.99
33913;BME280;20200;52.084;5.224;2023-02-18T00:17:15;153114.0;;;17.27;56.8
33913;BME280;20200;52.084;5.224;2023-02-18T00:20:32;153192.0;;;17.59;55.72
33913;BME280;20200;52.084;5.224;2023-02-18T00:22:09;153096.0;;;17.2;56.58
33913;BME280;20200;52.084;5.224;2023-02-18T00:23:45;153085.0;;;17.16;56.81
33913;BME280;20200;52.084;5.224;2023-02-18T00:26:58;153134.0;;;17.36;56.58
33913;BME280;20200;52.084;5.224;2023-02-18T00:28:34;153118.0;;;17.28;56.29
33913;BME280;20200;52.084;5.224;2023-02-18T00:30:12;153249.0;;;17.8;55.12
33913;BME280;20200;52.084;5.224;2023-02-18T00:31:48;153207.0;;;17.64;55.44
33913;BME280;20200;52.084;5.224;2023-02-18T00:35:02;153193.0;;;17.59;55.73
33913;BME280;20200;52.084;5.224;2023-02-18T00:36:39;153098.0;;;17.2;56.78
33913;BME280;20200;52.084;5.224;2023-02-18T00:38:16;153141.0;;;17.37;56.36
33913;BME280;20200;52.084;5.224;2023-02-18T00:41:30;153080.0;;;17.13;56.66
33913;BME280;20200;52.084;5.224;2023-02-18T00:43:06;152947.0;;;16.61;57.71
33913;BME280;20200;52.084;5.224;2023-02-18T00:44:43;153036.0;;;16.96;57.7
33913;BME280;20200;52.084;5.224;2023-02-18T00:46:20;153068.0;;;17.09;57.21
33913;BME280;20200;52.084;5.224;2023-02-18T00:49:33;153025.0;;;16.91;57.81
33913;BME280;20200;52.084;5.224;2023-02-18T00:51:10;153053.0;;;17.02;57.4
33913;BME280;20200;52.084;5.224;2023-02-18T00:52:47;153041.0;;;16.97;57.07
33913;BME280;20200;52.084;5.224;2023-02-18T00:56:00;153085.0;;;17.16;56.9
33913;BME280;20200;52.084;5.224;2023-02-18T00:57:36;152916.0;;;16.48;58.41
33913;BME280;20200;52.084;5.224;2023-02-18T00:59:12;153087.0;;;17.16;57.02
33913;BME280;20200;52.084;5.224;2023-02-18T01:02:26;153062.0;;;17.06;56.81
33913;BME280;20200;52.084;5.224;2023-02-18T01:04:03;152971.0;;;16.7;57.81
33913;BME280;20200;52.084;5.224;2023-02-18T01:05:40;153048.0;;;17.02;57.24
33913;BME280;20200;52.084;5.224;2023-02-18T01:07:17;153059.0;;;17.05;57.09
33913;BME280;20200;52.084;5.224;2023-02-18T01:10:31;153069.0;;;17.09;56.66
33913;BME280;20200;52.084;5.224;2023-02-18T01:12:09;152893.0;;;16.39;58.82
33913;BME280;20200;52.084;5.224;2023-02-18T01:13:45;152990.0;;;16.77;57.73
33913;BME280;20200;52.084;5.224;2023-02-18T01:16:59;152953.0;;;16.63;58.13
33913;BME280;20200;52.084;5.224;2023-02-18T01:18:35;153023.0;;;16.91;57.46
33913;BME280;20200;52.084;5.224;2023-02-18T01:20:13;152884.0;;;16.36;58.76
33913;BME280;20200;52.084;5.224;2023-02-18T01:23:27;152839.0;;;16.18;59.38
33913;BME280;20200;52.084;5.224;2023-02-18T01:25:04;153012.0;;;16.86;57.48
33913;BME280;20200;52.084;5.224;2023-02-18T01:26:40;153021.0;;;16.9;57.28
33913;BME280;20200;52.084;5.224;2023-02-18T01:28:18;152949.0;;;16.61;57.72
33913;BME280;20200;52.084;5.224;2023-02-18T01:31:30;152907.0;;;16.45;58.13
33913;BME280;20200;52.084;5.224;2023-02-18T01:33:07;152990.0;;;16.77;57.85
33913;BME280;20200;52.084;5.224;2023-02-18T01:34:43;152972.0;;;16.7;57.39
33913;BME280;20200;52.084;5.224;2023-02-18T01:37:56;152836.0;;;16.16;59.25
33913;BME280;20200;52.084;5.224;2023-02-18T01:39:32;153052.0;;;17.02;57.12
33913;BME280;20200;52.084;5.224;2023-02-18T01:41:09;153009.0;;;16.86;57.56
33913;BME280;20200;52.084;5.224;2023-02-18T01:44:25;152995.0;;;16.79;57.73
33913;BME280;20200;52.084;5.224;2023-02-18T01:46:07;152870.0;;;16.3;58.89
33913;BME280;20200;52.084;5.224;2023-02-18T01:47:50;152902.0;;;16.43;59.02
33913;BME280;20200;52.084;5.224;2023-02-18T01:49:29;152895.0;;;16.4;58.93
33913;BME280;20200;52.084;5.224;2023-02-18T01:52:49;153007.0;;;16.84;57.84
33913;BME280;20200;52.084;5.224;2023-02-18T01:54:27;153116.0;;;17.27;56.52
33913;BME280;20200;52.084;5.224;2023-02-18T01:56:11;153128.0;;;17.32;56.37
33913;BME280;20200;52.084;5.224;2023-02-18T01:57:49;153030.0;;;16.93;57.3
33913;BME280;20200;52.084;5.224;2023-02-18T02:01:08;153035.0;;;16.95;57.4
33913;BME280;20200;52.084;5.224;2023-02-18T02:02:45;153077.0;;;17.12;56.57
33913;BME280;20200;52.084;5.224;2023-02-18T02:04:23;152987.0;;;16.77;58.08
33913;BME280;20200;52.084;5.224;2023-02-18T02:05:59;153074.0;;;17.11;57.04
33913;BME280;20200;52.084;5.224;2023-02-18T02:09:18;153096.0;;;17.2;56.8
33913;BME280;20200;52.084;5.224;2023-02-18T02:11:05;153089.0;;;17.18;57.0
33913;BME280;20200;52.084;5.224;2023-02-18T02:13:00;152988.0;;;16.77;58.06
33913;BME280;20200;52.084;5.224;2023-02-18T02:14:53;153051.0;;;17.02;57.54
33913;BME280;20200;52.084;5.224;2023-02-18T02:17:02;152981.0;;;16.75;58.37
33913;BME280;20200;52.084;5.224;2023-02-18T02:18:55;153008.0;;;16.84;58.33
33913;BME280;20200;52.084;5.224;2023-02-18T02:21:27;152941.0;;;16.59;59.37
33913;BME280;20200;52.084;5.224;2023-02-18T02:24:55;153046.0;;;17.0;58.29
33913;BME280;20200;52.084;5.224;2023-02-18T02:27:23;153044.0;;;17.0;58.18
33913;BME280;20200;52.084;5.224;2023-02-18T02:29:17;152944.0;;;16.59;59.39
33913;BME280;20200;52.084;5.224;2023-02-18T02:31:36;152926.0;;;16.52;59.6
33913;BME280;20200;52.084;5.224;2023-02-18T02:35:27;153153.0;;;17.43;57.39
33913;BME280;20200;52.084;5.224;2023-02-18T02:38:55;152944.0;;;16.59;59.06
33913;BME280;20200;52.084;5.224;2023-02-18T02:40:39;153126.0;;;17.31;57.78
33913;BME280;20200;52.084;5.224;2023-02-18T02:42:25;153042.0;;;16.98;58.52
33913;BME280;20200;52.084;5.224;2023-02-18T02:44:12;152922.0;;;16.5;60.27
33913;BME280;20200;52.084;5.224;2023-02-18T02:45:57;153048.0;;;17.0;58.86
33913;BME280;20200;52.084;5.224;2023-02-18T02:49:35;153032.0;;;16.95;58.99
33913;BME280;20200;52.084;5.224;2023-02-18T02:51:17;152998.0;;;16.81;59.75
33913;BME280;20200;52.084;5.224;2023-02-18T02:53:02;153094.0;;;17.2;58.5
33913;BME280;20200;52.084;5.224;2023-02-18T02:54:41;153162.0;;;17.46;58.02
33913;BME280;20200;52.084;5.224;2023-02-18T02:56:19;153102.0;;;17.22;58.51
33913;BME280;20200;52.084;5.224;2023-02-18T02:59:35;153092.0;;;17.18;58.48
33913;BME280;20200;52.084;5.224;2023-02-18T03:01:21;153197.0;;;17.61;57.53
33913;BME280;20200;52.084;5.224;2023-02-18T03:03:23;153072.0;;;17.11;58.59
33913;BME280;20200;52.084;5.224;2023-02-18T03:05:25;153119.0;;;17.29;58.33
33913;BME280;20200;52.084;5.224;2023-02-18T03:07:14;153082.0;;;17.14;59.19
33913;BME280;20200;52.084;5.224;2023-02-18T03:09:11;153167.0;;;17.48;58.16
33913;BME280;20200;52.084;5.224;2023-02-18T03:11:02;153055.0;;;17.03;58.62
33913;BME280;20200;52.084;5.224;2023-02-18T03:14:27;153023.0;;;16.9;59.69
33913;BME280;20200;52.084;5.224;2023-02-18T03:16:13;153089.0;;;17.18;59.12
33913;BME280;20200;52.084;5.224;2023-02-18T03:18:00;153089.0;;;17.18;58.93
33913;BME280;20200;52.084;5.224;2023-02-18T03:19:39;152957.0;;;16.64;60.57
33913;BME280;20200;52.084;5.224;2023-02-18T03:21:24;152955.0;;;16.64;60.6
33913;BME280;20200;52.084;5.224;2023-02-18T03:24:53;153002.0;;;16.82;60.1
33913;BME280;20200;52.084;5.224;2023-02-18T03:26:35;152846.0;;;16.2;61.33
33913;BME280;20200;52.084;5.224;2023-02-18T03:28:16;153009.0;;;16.86;59.84
33913;BME280;20200;52.084;5.224;2023-02-18T03:29:57;153073.0;;;17.11;59.04
33913;BME280;20200;52.084;5.224;2023-02-18T03:31:38;152961.0;;;16.66;60.29
33913;BME280;20200;52.084;5.224;2023-02-18T03:35:15;152984.0;;;16.75;59.69
33913;BME280;20200;52.084;5.224;2023-02-18T03:36:52;153073.0;;;17.11;59.08
33913;BME280;20200;52.084;5.224;2023-02-18T03:38:34;152935.0;;;16.55;60.59
33913;BME280;20200;52.084;5.224;2023-02-18T03:40:12;153139.0;;;17.36;58.36
33913;BME280;20200;52.084;5.224;2023-02-18T03:43:27;153102.0;;;17.22;58.35
33913;BME280;20200;52.084;5.224;2023-02-18T03:45:04;153049.0;;;17.02;59.31
33913;BME280;20200;52.084;5.224;2023-02-18T03:46:43;153082.0;;;17.14;59.23
33913;BME280;20200;52.084;5.224;2023-02-18T03:49:56;153059.0;;;17.05;59.3
33913;BME280;20200;52.084;5.224;2023-02-18T03:51:32;153139.0;;;17.37;58.4
33913;BME280;20200;52.084;5.224;2023-02-18T03:53:08;152935.0;;;16.55;60.25
33913;BME280;20200;52.084;5.224;2023-02-18T03:54:44;152996.0;;;16.8;59.76
33913;BME280;20200;52.084;5.224;2023-02-18T03:57:57;153099.0;;;17.21;59.23
33913;BME280;20200;52.084;5.224;2023-02-18T03:59:34;153182.0;;;17.54;58.12
33913;BME280;20200;52.084;5.224;2023-02-18T04:01:10;153079.0;;;17.13;59.43
33913;BME280;20200;52.084;5.224;2023-02-18T04:04:22;153062.0;;;17.06;59.5
33913;BME280;20200;52.084;5.224;2023-02-18T04:05:58;153105.0;;;17.23;59.69
33913;BME280;20200;52.084;5.224;2023-02-18T04:07:35;153050.0;;;17.02;60.0
33913;BME280;20200;52.084;5.224;2023-02-18T04:10:48;153050.0;;;17.02;59.84
33913;BME280;20200;52.084;5.224;2023-02-18T04:12:26;153020.0;;;16.89;60.65
33913;BME280;20200;52.084;5.224;2023-02-18T04:14:02;153121.0;;;17.29;59.75
33913;BME280;20200;52.084;5.224;2023-02-18T04:15:39;153134.0;;;17.36;59.35
33913;BME280;20200;52.084;5.224;2023-02-18T04:18:51;153157.0;;;17.45;58.8
33913;BME280;20200;52.084;5.224;2023-02-18T04:20:27;153074.0;;;17.11;60.02
33913;BME280;20200;52.084;5.224;2023-02-18T04:22:04;153091.0;;;17.18;59.6
33913;BME280;20200;52.084;5.224;2023-02-18T04:25:17;153162.0;;;17.46;58.97
33913;BME280;20200;52.084;5.224;2023-02-18T04:26:54;153050.0;;;17.02;59.97
33913;BME280;20200;52.084;5.224;2023-02-18T04:28:30;152888.0;;;16.37;61.83
33913;BME280;20200;52.084;5.224;2023-02-18T04:31:43;152904.0;;;16.43;61.92
33913;BME280;20200;52.084;5.224;2023-02-18T04:33:19;152923.0;;;16.52;60.89
33913;BME280;20200;52.084;5.224;2023-02-18T04:34:55;153146.0;;;17.39;59.04
33913;BME280;20200;52.084;5.224;2023-02-18T04:36:31;153068.0;;;17.09;59.92
33913;BME280;20200;52.084;5.224;2023-02-18T04:39:46;153063.0;;;17.06;59.68
33913;BME280;20200;52.084;5.224;2023-02-18T04:41:22;152915.0;;;16.48;61.41
33913;BME280;20200;52.084;5.224;2023-02-18T04:42:58;153020.0;;;16.89;60.52
33913;BME280;20200;52.084;5.224;2023-02-18T04:46:12;153055.0;;;17.03;60.1
33913;BME280;20200;52.084;5.224;2023-02-18T04:47:48;152937.0;;;16.56;61.67
33913;BME280;20200;52.084;5.224;2023-02-18T04:49:24;152965.0;;;16.68;61.27
33913;BME280;20200;52.084;5.224;2023-02-18T04:52:39;153198.0;;;17.61;58.36
33913;BME280;20200;52.084;5.224;2023-02-18T04:54:15;153019.0;;;16.89;59.99
33913;BME280;20200;52.084;5.224;2023-02-18T04:55:51;152915.0;;;16.48;61.39
33913;BME280;20200;52.084;5.224;2023-02-18T04:57:29;152920.0;;;16.5;61.34
33913;BME280;20200;52.084;5.224;2023-02-18T05:00:41;153105.0;;;17.23;59.02
33913;BME280;20200;52.084;5.224;2023-02-18T05:02:17;153005.0;;;16.84;59.99
33913;BME280;20200;52.084;5.224;2023-02-18T05:03:53;153003.0;;;16.84;60.15
33913;BME280;20200;52.084;5.224;2023-02-18T05:07:06;153043.0;;;16.98;59.76
33913;BME280;20200;52.084;5.224;2023-02-18T05:08:42;153123.0;;;17.3;58.58
33913;BME280;20200;52.084;5.224;2023-02-18T05:10:18;153075.0;;;17.11;59.29
33913;BME280;20200;52.084;5.224;2023-02-18T05:13:30;153023.0;;;16.9;60.44
33913;BME280;20200;52.084;5.224;2023-02-18T05:15:07;153137.0;;;17.36;58.77
33913;BME280;20200;52.084;5.224;2023-02-18T05:16:44;153027.0;;;16.93;60.03
33913;BME280;20200;52.084;5.224;2023-02-18T05:18:20;153048.0;;;17.0;60.0
33913;BME280;20200;52.084;5.224;2023-02-18T05:21:33;153005.0;;;16.84;60.23
33913;BME280;20200;52.084;5.224;2023-02-18T05:23:09;152900.0;;;16.43;60.62
33913;BME280;20200;52.084;5.224;2023-02-18T05:24:45;153012.0;;;16.86;60.73
33913;BME280;20200;52.084;5.224;2023-02-18T05:27:58;153026.0;;;16.93;60.52
33913;BME280;20200;52.084;5.224;2023-02-18T05:29:34;153080.0;;;17.13;59.61
33913;BME280;20200;52.084;5.224;2023-02-18T05:31:11;153009.0;;;16.86;60.48
33913;BME280;20200;52.084;5.224;2023-02-18T05:34:23;152929.0;;;16.53;61.02
33913;BME280;20200;52.084;5.224;2023-02-18T05:35:59;153084.0;;;17.14;60.03
33913;BME280;20200;52.084;5.224;2023-02-18T05:37:35;153082.0;;;17.14;59.75
33913;BME280;20200;52.084;5.224;2023-02-18T05:40:47;153087.0;;;17.16;59.35
33913;BME280;20200;52.084;5.224;2023-02-18T05:42:23;153054.0;;;17.03;59.96
33913;BME280;20200;52.084;5.224;2023-02-18T05:44:32;153004.0;;;16.84;60.02
33913;BME280;20200;52.084;5.224;2023-02-18T05:46:09;153046.0;;;17.0;60.0
33913;BME280;20200;52.084;5.224;2023-02-18T05:47:45;152991.0;;;16.78;60.23
33913;BME280;20200;52.084;5.224;2023-02-18T05:50:57;153145.0;;;17.39;59.06
33913;BME280;20200;52.084;5.224;2023-02-18T05:52:34;153108.0;;;17.25;59.22
33913;BME280;20200;52.084;5.224;2023-02-18T05:54:10;153067.0;;;17.09;59.2
33913;BME280;20200;52.084;5.224;2023-02-18T05:57:22;153003.0;;;16.82;59.91
33913;BME280;20200;52.084;5.224;2023-02-18T05:58:59;153034.0;;;16.95;60.03
33913;BME280;20200;52.084;5.224;2023-02-18T06:00:36;152994.0;;;16.79;60.59
33913;BME280;20200;52.084;5.224;2023-02-18T06:03:48;153039.0;;;16.97;59.98
33913;BME280;20200;52.084;5.224;2023-02-18T06:05:24;153079.0;;;17.13;59.43
33913;BME280;20200;52.084;5.224;2023-02-18T06:07:00;153043.0;;;16.98;60.18
33913;BME280;20200;52.084;5.224;2023-02-18T06:08:36;153082.0;;;17.14;59.34
33913;BME280;20200;52.084;5.224;2023-02-18T06:11:48;153062.0;;;17.06;59.75
33913;BME280;20200;52.084;5.224;2023-02-18T06:13:25;153021.0;;;16.9;59.94
33913;BME280;20200;52.084;5.224;2023-02-18T06:15:01;152957.0;;;16.64;60.41
33913;BME280;20200;52.084;5.224;2023-02-18T06:18:13;153170.0;;;17.5;58.43
33913;BME280;20200;52.084;5.224;2023-02-18T06:19:49;153210.0;;;17.66;58.03
33913;BME280;20200;52.084;5.224;2023-02-18T06:21:25;153044.0;;;17.0;59.88
33913;BME280;20200;52.084;5.224;2023-02-18T06:24:38;153020.0;;;16.89;60.05
33913;BME280;20200;52.084;5.224;2023-02-18T06:26:14;153111.0;;;17.25;59.42
33913;BME280;20200;52.084;5.224;2023-02-18T06:27:50;152982.0;;;16.75;60.89
33913;BME280;20200;52.084;5.224;2023-02-18T06:29:29;152948.0;;;16.61;60.69
33913;BME280;20200;52.084;5.224;2023-02-18T06:32:42;153143.0;;;17.38;59.07
33913;BME280;20200;52.084;5.224;2023-02-18T06:34:18;152876.0;;;16.32;62.06
33913;BME280;20200;52.084;5.224;2023-02-18T06:35:56;153023.0;;;16.91;60.51
33913;BME280;20200;52.084;5.224;2023-02-18T06:39:09;153127.0;;;17.32;59.31
33913;BME280;20200;52.084;5.224;2023-02-18T06:40:45;153020.0;;;16.89;59.98
33913;BME280;20200;52.084;5.224;2023-02-18T06:45:37;153134.0;;;17.36;59.22
33913;BME280;20200;52.084;5.224;2023-02-18T06:47:13;153077.0;;;17.12;59.75
33913;BME280;20200;52.084;5.224;2023-02-18T06:48:50;153171.0;;;17.5;58.56
33913;BME280;20200;52.084;5.224;2023-02-18T06:50:26;152970.0;;;16.7;60.03
33913;BME280;20200;52.084;5.224;2023-02-18T06:53:40;152986.0;;;16.77;60.21
33913;BME280;20200;52.084;5.224;2023-02-18T06:55:16;153125.0;;;17.31;59.02
33913;BME280;20200;52.084;5.224;2023-02-18T06:56:52;153131.0;;;17.34;58.72
33913;BME280;20200;52.084;5.224;2023-02-18T07:00:06;153223.0;;;17.7;57.51
33913;BME280;20200;52.084;5.224;2023-02-18T07:01:43;153110.0;;;17.25;58.63
33913;BME280;20200;52.084;5.224;2023-02-18T07:03:19;153082.0;;;17.14;58.93
33913;BME280;20200;52.084;5.224;2023-02-18T07:06:31;153096.0;;;17.2;58.39
33913;BME280;20200;52.084;5.224;2023-02-18T07:08:08;153062.0;;;17.06;58.79
33913;BME280;20200;52.084;5.224;2023-02-18T07:09:44;153194.0;;;17.59;57.66
33913;BME280;20200;52.084;5.224;2023-02-18T07:11:21;153184.0;;;17.54;57.68
33913;BME280;20200;52.084;5.224;2023-02-18T07:14:34;153161.0;;;17.45;57.88
33913;BME280;20200;52.084;5.224;2023-02-18T07:16:10;153091.0;;;17.18;58.85
33913;BME280;20200;52.084;5.224;2023-02-18T07:17:46;152969.0;;;16.7;59.75
33913;BME280;20200;52.084;5.224;2023-02-18T07:20:58;153059.0;;;17.05;58.76
33913;BME280;20200;52.084;5.224;2023-02-18T07:22:34;153050.0;;;17.02;59.01
33913;BME280;20200;52.084;5.224;2023-02-18T07:24:10;153032.0;;;16.95;59.43
33913;BME280;20200;52.084;5.224;2023-02-18T07:27:23;153068.0;;;17.09;58.86
33913;BME280;20200;52.084;5.224;2023-02-18T07:29:00;153126.0;;;17.31;58.47
33913;BME280;20200;52.084;5.224;2023-02-18T07:30:37;153043.0;;;16.98;58.71
33913;BME280;20200;52.084;5.224;2023-02-18T07:32:15;153169.0;;;17.5;57.27
33913;BME280;20200;52.084;5.224;2023-02-18T07:35:29;153173.0;;;17.5;57.13
33913;BME280;20200;52.084;5.224;2023-02-18T07:37:08;153137.0;;;17.36;56.98
33913;BME280;20200;52.084;5.224;2023-02-18T07:38:45;153086.0;;;17.16;57.13
33913;BME280;20200;52.084;5.224;2023-02-18T07:41:57;153002.0;;;16.82;58.12
33913;BME280;20200;52.084;5.224;2023-02-18T07:43:33;152995.0;;;16.79;58.02
33913;BME280;20200;52.084;5.224;2023-02-18T07:45:10;153047.0;;;17.0;56.83
33913;BME280;20200;52.084;5.224;2023-02-18T07:48:22;153083.0;;;17.14;56.89
33913;BME280;20200;52.084;5.224;2023-02-18T07:49:58;153026.0;;;16.93;57.3
33913;BME280;20200;52.084;5.224;2023-02-18T07:51:34;152971.0;;;16.7;57.19
33913;BME280;20200;52.084;5.224;2023-02-18T07:53:12;152971.0;;;16.7;57.56
33913;BME280;20200;52.084;5.224;2023-02-18T07:56:26;153032.0;;;16.95;56.97
33913;BME280;20200;52.084;5.224;2023-02-18T07:58:02;153058.0;;;17.04;56.38
33913;BME280;20200;52.084;5.224;2023-02-18T07:59:38;153146.0;;;17.39;55.36
33913;BME280;20200;52.084;5.224;2023-02-18T08:02:51;153066.0;;;17.07;55.94
33913;BME280;20200;52.084;5.224;2023-02-18T08:04:27;153139.0;;;17.36;55.01
33913;BME280;20200;52.084;5.224;2023-02-18T08:06:05;153087.0;;;17.16;55.18
33913;BME280;20200;52.084;5.224;2023-02-18T08:09:17;152978.0;;;16.73;56.03
33913;BME280;20200;52.084;5.224;2023-02-18T08:10:55;153068.0;;;17.09;55.76
33913;BME280;20200;52.084;5.224;2023-02-18T08:12:34;153073.0;;;17.11;55.56
33913;BME280;20200;52.084;5.224;2023-02-18T08:14:10;153096.0;;;17.2;55.38
33913;BME280;20200;52.084;5.224;2023-02-18T08:17:23;153004.0;;;16.84;55.73
33913;BME280;20200;52.084;5.224;2023-02-18T08:19:01;153107.0;;;17.25;55.03
33913;BME280;20200;52.084;5.224;2023-02-18T08:20:39;153155.0;;;17.43;54.51
33913;BME280;20200;52.084;5.224;2023-02-18T08:23:51;153003.0;;;16.82;56.21
33913;BME280;20200;52.084;5.224;2023-02-18T08:25:28;153098.0;;;17.2;55.16
33913;BME280;20200;52.084;5.224;2023-02-18T08:27:04;153053.0;;;17.02;55.09
33913;BME280;20200;52.084;5.224;2023-02-18T08:28:41;153025.0;;;16.91;56.07
33913;BME280;20200;52.084;5.224;2023-02-18T08:31:56;152990.0;;;16.77;55.64
33913;BME280;20200;52.084;5.224;2023-02-18T08:33:32;153076.0;;;17.11;54.97
33913;BME280;20200;52.084;5.224;2023-02-18T08:35:10;152887.0;;;16.36;56.24
33913;BME280;20200;52.084;5.224;2023-02-18T08:38:23;153160.0;;;17.45;54.1
33913;BME280;20200;52.084;5.224;2023-02-18T08:40:00;152966.0;;;16.68;55.46
33913;BME280;20200;52.084;5.224;2023-02-18T08:41:36;153057.0;;;17.04;55.12
33913;BME280;20200;52.084;5.224;2023-02-18T08:44:51;152991.0;;;16.78;55.92
33913;BME280;20200;52.084;5.224;2023-02-18T08:46:27;153084.0;;;17.14;54.88
33913;BME280;20200;52.084;5.224;2023-02-18T08:48:03;152950.0;;;16.62;55.45
33913;BME280;20200;52.084;5.224;2023-02-18T08:49:40;152946.0;;;16.61;55.97
33913;BME280;20200;52.084;5.224;2023-02-18T08:52:59;152841.0;;;16.18;56.13
33913;BME280;20200;52.084;5.224;2023-02-18T08:54:36;153001.0;;;16.82;55.81
33913;BME280;20200;52.084;5.224;2023-02-18T08:56:14;152888.0;;;16.37;56.53
33913;BME280;20200;52.084;5.224;2023-02-18T08:59:27;153016.0;;;16.88;55.15
33913;BME280;20200;52.084;5.224;2023-02-18T09:01:04;152917.0;;;16.48;56.14
33913;BME280;20200;52.084;5.224;2023-02-18T09:02:42;153051.0;;;17.02;54.62
33913;BME280;20200;52.084;5.224;2023-02-18T09:04:20;152992.0;;;16.78;55.58
33913;BME280;20200;52.084;5.224;2023-02-18T09:07:35;152935.0;;;16.55;56.16
33913;BME280;20200;52.084;5.224;2023-02-18T09:09:12;152944.0;;;16.59;55.58
33913;BME280;20200;52.084;5.224;2023-02-18T09:10:48;153055.0;;;17.03;54.82
33913;BME280;20200;52.084;5.224;2023-02-18T09:14:02;152921.0;;;16.5;54.98
33913;BME280;20200;52.084;5.224;2023-02-18T09:15:38;152986.0;;;16.77;55.23
33913;BME280;20200;52.084;5.224;2023-02-18T09:17:14;153077.0;;;17.12;54.25
33913;BME280;20200;52.084;5.224;2023-02-18T09:20:27;153040.0;;;16.97;54.55
33913;BME280;20200;52.084;5.224;2023-02-18T09:22:02;152952.0;;;16.62;54.91
33913;BME280;20200;52.084;5.224;2023-02-18T09:23:39;152950.0;;;16.61;55.0
33913;BME280;20200;52.084;5.224;2023-02-18T09:25:15;153204.0;;;17.62;53.13
33913;BME280;20200;52.084;5.224;2023-02-18T09:28:27;152988.0;;;16.77;54.34
33913;BME280;20200;52.084;5.224;2023-02-18T09:30:05;153106.0;;;17.23;53.45
33913;BME280;20200;52.084;5.224;2023-02-18T09:31:43;153064.0;;;17.07;53.59
33913;BME280;20200;52.084;5.224;2023-02-18T09:34:55;153039.0;;;16.97;54.1
33913;BME280;20200;52.084;5.224;2023-02-18T09:36:31;153075.0;;;17.11;53.69
33913;BME280;20200;52.084;5.224;2023-02-18T09:38:10;152991.0;;;16.78;54.33
33913;BME280;20200;52.084;5.224;2023-02-18T09:41:30;152995.0;;;16.79;53.88
33913;BME280;20200;52.084;5.224;2023-02-18T09:43:23;153119.0;;;17.29;52.76
33913;BME280;20200;52.084;5.224;2023-02-18T09:45:10;153073.0;;;17.11;54.08
33913;BME280;20200;52.084;5.224;2023-02-18T09:46:50;153084.0;;;17.14;53.25
33913;BME280;20200;52.084;5.224;2023-02-18T09:48:31;153238.0;;;17.77;51.67
33913;BME280;20200;52.084;5.224;2023-02-18T09:52:03;153185.0;;;17.55;52.26
33913;BME280;20200;52.084;5.224;2023-02-18T09:53:42;153023.0;;;16.9;53.69
33913;BME280;20200;52.084;5.224;2023-02-18T09:55:22;153057.0;;;17.04;52.99
33913;BME280;20200;52.084;5.224;2023-02-18T09:57:00;153118.0;;;17.28;52.51
33913;BME280;20200;52.084;5.224;2023-02-18T10:00:19;153091.0;;;17.18;52.94
33913;BME280;20200;52.084;5.224;2023-02-18T10:01:59;153094.0;;;17.2;52.45
33913;BME280;20200;52.084;5.224;2023-02-18T10:03:36;153117.0;;;17.28;52.0
33913;BME280;20200;52.084;5.224;2023-02-18T10:05:14;153264.0;;;17.86;51.68
33913;BME280;20200;52.084;5.224;2023-02-18T10:08:32;153123.0;;;17.3;53.02
33913;BME280;20200;52.084;5.224;2023-02-18T10:10:18;153046.0;;;17.0;53.13
33913;BME280;20200;52.084;5.224;2023-02-18T10:11:57;153061.0;;;17.06;53.08
33913;BME280;20200;52.084;5.224;2023-02-18T10:13:40;153008.0;;;16.84;54.18
33913;BME280;20200;52.084;5.224;2023-02-18T10:16:58;153073.0;;;17.11;53.87
33913;BME280;20200;52.084;5.224;2023-02-18T10:18:39;153082.0;;;17.14;53.77
33913;BME280;20200;52.084;5.224;2023-02-18T10:20:20;153089.0;;;17.18;53.68
33913;BME280;20200;52.084;5.224;2023-02-18T10:22:01;153096.0;;;17.2;53.31
33913;BME280;20200;52.084;5.224;2023-02-18T10:25:30;153078.0;;;17.12;53.11
33913;BME280;20200;52.084;5.224;2023-02-18T10:27:15;153307.0;;;18.03;51.16
33913;BME280;20200;52.084;5.224;2023-02-18T10:28:59;153040.0;;;16.97;53.95
33913;BME280;20200;52.084;5.224;2023-02-18T10:30:39;153245.0;;;17.78;51.97
33913;BME280;20200;52.084;5.224;2023-02-18T10:32:20;153193.0;;;17.59;52.0
33913;BME280;20200;52.084;5.224;2023-02-18T10:35:49;153216.0;;;17.68;52.56
33913;BME280;20200;52.084;5.224;2023-02-18T10:37:46;153184.0;;;17.54;53.05
33913;BME280;20200;52.084;5.224;2023-02-18T10:39:40;152962.0;;;16.66;54.19
33913;BME280;20200;52.084;5.224;2023-02-18T10:41:27;153172.0;;;17.5;52.64
33913;BME280;20200;52.084;5.224;2023-02-18T10:43:16;153059.0;;;17.05;53.76
33913;BME280;20200;52.084;5.224;2023-02-18T10:45:03;153276.0;;;17.91;52.14
33913;BME280;20200;52.084;5.224;2023-02-18T10:48:51;153352.0;;;18.21;51.32
33913;BME280;20200;52.084;5.224;2023-02-18T10:50:36;153322.0;;;18.09;51.27
33913;BME280;20200;52.084;5.224;2023-02-18T10:52:16;153264.0;;;17.86;52.53
33913;BME280;20200;52.084;5.224;2023-02-18T10:53:54;153269.0;;;17.88;51.79
33913;BME280;20200;52.084;5.224;2023-02-18T10:55:35;153050.0;;;17.02;53.41
33913;BME280;20200;52.084;5.224;2023-02-18T10:59:00;153323.0;;;18.09;51.96
33913;BME280;20200;52.084;5.224;2023-02-18T11:00:40;153177.0;;;17.52;52.75
33913;BME280;20200;52.084;5.224;2023-02-18T11:02:17;153223.0;;;17.7;52.48
33913;BME280;20200;52.084;5.224;2023-02-18T11:04:04;153205.0;;;17.63;52.17
33913;BME280;20200;52.084;5.224;2023-02-18T11:05:43;153297.0;;;18.0;51.72
33913;BME280;20200;52.084;5.224;2023-02-18T11:09:01;153467.0;;;18.68;50.97
33913;BME280;20200;52.084;5.224;2023-02-18T11:10:40;153146.0;;;17.39;53.06
33913;BME280;20200;52.084;5.224;2023-02-18T11:12:20;153278.0;;;17.93;52.52